N152CD KSRQ-KMDW
Flight info
| Callsign | N152CD |
|---|---|
| Flight time | N/A |
| Altitude | 38000 |
| Route | TIDES1 MOMIE BRUTS Q118 THRSR Q79 IIU DROSE FISSK7 |
| Aircraft | C750/M-SBDE3FGHRWXY/S |
Departure
| Time | 2026-04-26 21:05 |
|---|---|
| Airport | Sarasota Bradenton International Airport (KSRQ) |
Arrival
| Time | N/A |
|---|---|
| Airport | Chicago Midway International Airport (KMDW) |
| Time | Latitude | Longitude | Altitude | Speed | Heading |
|---|---|---|---|---|---|
| 2026-04-26 20:47 | 27.39461 | -82.55749 | 27 ft | 0 kts | 342° |
| 2026-04-26 21:00 | 27.39462 | -82.55749 | 27 ft | 1 kts | 342° |
| 2026-04-26 21:00 | 27.39478 | -82.55745 | 27 ft | 3 kts | 25° |
| 2026-04-26 21:00 | 27.39501 | -82.55724 | 27 ft | 6 kts | 40° |
| 2026-04-26 21:01 | 27.39529 | -82.55679 | 28 ft | 8 kts | 85° |
| 2026-04-26 21:01 | 27.39489 | -82.55626 | 26 ft | 11 kts | 136° |
| 2026-04-26 21:01 | 27.39428 | -82.55555 | 27 ft | 15 kts | 135° |
| 2026-04-26 21:01 | 27.39344 | -82.55459 | 26 ft | 20 kts | 134° |
| 2026-04-26 21:02 | 27.39249 | -82.55351 | 27 ft | 16 kts | 136° |
| 2026-04-26 21:02 | 27.39175 | -82.55266 | 26 ft | 15 kts | 134° |
| 2026-04-26 21:02 | 27.39101 | -82.55181 | 27 ft | 15 kts | 135° |
| 2026-04-26 21:02 | 27.39029 | -82.55099 | 27 ft | 15 kts | 134° |
| 2026-04-26 21:03 | 27.38958 | -82.55017 | 27 ft | 15 kts | 135° |
| 2026-04-26 21:03 | 27.38888 | -82.54937 | 27 ft | 14 kts | 135° |
| 2026-04-26 21:03 | 27.38820 | -82.54860 | 28 ft | 14 kts | 134° |
| 2026-04-26 21:03 | 27.38754 | -82.54784 | 27 ft | 14 kts | 135° |
| 2026-04-26 21:04 | 27.38674 | -82.54694 | 27 ft | 18 kts | 135° |
| 2026-04-26 21:04 | 27.38593 | -82.54599 | 27 ft | 14 kts | 128° |
| 2026-04-26 21:04 | 27.38595 | -82.54535 | 27 ft | 6 kts | 44° |
| 2026-04-26 21:04 | 27.38650 | -82.54506 | 26 ft | 11 kts | 350° |
| 2026-04-26 21:05 | 27.38748 | -82.54601 | 27 ft | 40 kts | 315° |
| 2026-04-26 21:05 | 27.39201 | -82.55121 | 43 ft | 132 kts | 312° |
| 2026-04-26 21:05 | 27.39901 | -82.55910 | 515 ft | 153 kts | 312° |
| 2026-04-26 21:05 | 27.40499 | -82.56925 | 1054 ft | 162 kts | 287° |
| 2026-04-26 21:06 | 27.40652 | -82.58226 | 1832 ft | 175 kts | 271° |
| 2026-04-26 21:06 | 27.40640 | -82.59632 | 2685 ft | 186 kts | 271° |
| 2026-04-26 21:06 | 27.40662 | -82.61201 | 2907 ft | 221 kts | 272° |
| 2026-04-26 21:06 | 27.40709 | -82.63004 | 2580 ft | 233 kts | 272° |
| 2026-04-26 21:07 | 27.40730 | -82.64741 | 2581 ft | 219 kts | 271° |
| 2026-04-26 21:07 | 27.40750 | -82.66453 | 2570 ft | 219 kts | 271° |
| 2026-04-26 21:07 | 27.40774 | -82.68161 | 2586 ft | 217 kts | 271° |
| 2026-04-26 21:07 | 27.40440 | -82.69884 | 2569 ft | 246 kts | 251° |
| 2026-04-26 21:08 | 27.39822 | -82.71716 | 3430 ft | 250 kts | 255° |
| 2026-04-26 21:08 | 27.39797 | -82.73658 | 4411 ft | 249 kts | 281° |
| 2026-04-26 21:08 | 27.40435 | -82.75464 | 5348 ft | 253 kts | 303° |
| 2026-04-26 21:08 | 27.41706 | -82.76862 | 6152 ft | 262 kts | 326° |
| 2026-04-26 21:09 | 27.43363 | -82.77722 | 7078 ft | 263 kts | 336° |
| 2026-04-26 21:09 | 27.45068 | -82.78518 | 8012 ft | 267 kts | 336° |
| 2026-04-26 21:09 | 27.46823 | -82.79252 | 8943 ft | 274 kts | 346° |
| 2026-04-26 21:09 | 27.48751 | -82.79299 | 9852 ft | 279 kts | 0° |
| 2026-04-26 21:10 | 27.50717 | -82.79209 | 10440 ft | 293 kts | 359° |
| 2026-04-26 21:10 | 27.52849 | -82.79153 | 10606 ft | 319 kts | 359° |
| 2026-04-26 21:10 | 27.55160 | -82.79087 | 10717 ft | 344 kts | 360° |
| 2026-04-26 21:10 | 27.57562 | -82.78992 | 11447 ft | 345 kts | 360° |
| 2026-04-26 21:11 | 27.59942 | -82.78988 | 12090 ft | 348 kts | 357° |
| 2026-04-26 21:11 | 27.62378 | -82.78974 | 12794 ft | 352 kts | 359° |
| 2026-04-26 21:11 | 27.64837 | -82.78916 | 13461 ft | 355 kts | 358° |
| 2026-04-26 21:11 | 27.67318 | -82.78895 | 14090 ft | 359 kts | 357° |
| 2026-04-26 21:12 | 27.69826 | -82.78899 | 14685 ft | 362 kts | 357° |
| 2026-04-26 21:12 | 27.72359 | -82.78887 | 15260 ft | 366 kts | 358° |
| 2026-04-26 21:12 | 27.74919 | -82.78861 | 15851 ft | 370 kts | 358° |